Daytona Beach, Florida
Current Conditions -  °F | °C
As of 5:53 AM on Monday 20 Oct 2014 (Local Time) from KDAB Reporting Station
Overcast Overcast  
Wind Chill: 20°   Ceiling: 3200
Heat Index: 20°   Visibility: 10mi
Dew Point: 18°   Wind: 3mph
Humidity: 90%   Direction: 250°WSW
Pressure: 30.02"   Gusts: NA
Location:  29.2°N, 81.04°W
Report Text: KDAB 200953Z 25003KT 10SM OVC032 20/18 A3002 RMK AO2 SLP166 T02000183
Loading
Personal Weather Stations






























Interactive Weather Map New forecast layout! Learn more

10-Day Weather Forecast

Advertisements
Track Severe Weather on mobile